Time;durP1;ratioP1;P1;durP2;ratioP2;P2;SDS_P1;SDS_P2;PMS_P1;PMS_P2;Temp;Humidity;BMP_temperature;BMP_pressure;BME280_temperature;BME280_humidity;BME280_pressure;Samples;Min_cycle;Max_cycle;Signal;HPM_P1;HPM_P2
2022/01/10 00:00:52;;;;;;;6.70;3.00;;;;;;;20.26;34.63;100969.69;7313266;19;135187;-62
2022/01/10 00:03:22;;;;;;;7.38;3.45;;;;;;;20.23;34.97;100967.44;7315119;19;131076;-63
2022/01/10 00:05:49;;;;;;;8.40;2.97;;;;;;;20.20;34.50;100962.38;7314203;19;129003;-62
2022/01/10 00:08:15;;;;;;;5.15;3.13;;;;;;;20.20;34.75;100968.75;7315188;19;131271;-62
2022/01/10 00:10:44;;;;;;;8.15;2.90;;;;;;;20.16;35.07;100975.94;7316430;19;131194;-63
2022/01/10 00:13:11;;;;;;;4.75;3.10;;;;;;;20.14;34.75;100987.28;7311512;19;130851;-62
2022/01/10 00:15:38;;;;;;;5.55;2.95;;;;;;;20.13;34.63;100987.56;7316817;19;128911;-62
2022/01/10 00:18:05;;;;;;;6.07;2.85;;;;;;;20.10;34.58;100988.91;7311481;19;129227;-62
2022/01/10 00:20:32;;;;;;;5.38;2.80;;;;;;;20.09;34.69;100995.56;7316276;19;131269;-63
2022/01/10 00:22:59;;;;;;;7.47;3.20;;;;;;;20.07;34.72;101010.78;7311963;19;131927;-62
2022/01/10 00:25:26;;;;;;;5.32;2.90;;;;;;;20.06;35.12;101009.13;7315397;19;129379;-62
2022/01/10 00:27:53;;;;;;;5.32;2.85;;;;;;;20.03;34.74;100995.75;7313616;19;130856;-62
2022/01/10 00:30:24;;;;;;;4.57;2.80;;;;;;;20.03;35.17;101004.06;7313347;19;131726;-62
2022/01/10 00:32:52;;;;;;;5.22;2.85;;;;;;;20.00;35.05;101010.97;7315703;19;132325;-62
2022/01/10 00:35:19;;;;;;;6.05;3.10;;;;;;;19.98;35.06;101019.53;7311376;19;129664;-62
2022/01/10 00:37:46;;;;;;;5.00;2.83;;;;;;;19.97;35.10;101015.06;7313094;19;132220;-62
2022/01/10 00:40:15;;;;;;;5.13;2.85;;;;;;;19.95;35.22;101020.03;7310000;19;131130;-62
2022/01/10 00:42:43;;;;;;;6.97;2.63;;;;;;;19.93;35.01;101025.00;7315175;19;130940;-62
2022/01/10 00:45:17;;;;;;;4.90;2.83;;;;;;;19.93;34.91;101026.94;7311870;19;129153;-62
2022/01/10 00:47:48;;;;;;;5.20;2.63;;;;;;;19.90;34.84;101033.84;7313009;19;129222;-62
2022/01/10 00:50:15;;;;;;;7.78;3.58;;;;;;;19.89;35.11;101020.19;7315607;19;133311;-62
2022/01/10 00:52:42;;;;;;;7.03;3.03;;;;;;;19.87;35.07;101028.78;7311555;19;131944;-62
2022/01/10 00:55:09;;;;;;;5.88;3.03;;;;;;;19.86;35.25;101038.19;7314295;19;129095;-62
2022/01/10 00:57:37;;;;;;;5.63;3.25;;;;;;;19.84;35.29;101052.34;7311336;19;129564;-62
2022/01/10 01:00:06;;;;;;;6.65;3.10;;;;;;;19.82;35.29;101048.97;7315054;19;131880;-62
2022/01/10 01:02:33;;;;;;;5.40;2.80;;;;;;;19.81;35.14;101060.34;7311338;19;131820;-62
2022/01/10 01:05:01;;;;;;;7.10;2.90;;;;;;;19.80;35.11;101055.88;7313618;19;128874;-62
2022/01/10 01:07:28;;;;;;;5.53;2.78;;;;;;;19.79;34.87;101070.84;7312050;19;130036;-62
2022/01/10 01:10:15;;;;;;;6.90;2.92;;;;;;;19.77;35.12;101075.81;7313565;19;131238;-62
2022/01/10 01:15:30;;;;;;;6.53;3.20;;;;;;;19.73;35.44;101072.69;7311464;19;129047;-62
2022/01/10 01:25:51;;;;;;;4.68;2.47;;;;;;;19.64;35.49;101082.50;7312317;19;129603;-62
2022/01/10 01:28:18;;;;;;;4.28;3.08;;;;;;;19.63;35.28;101089.16;7309029;19;129298;-62
2022/01/10 01:30:45;;;;;;;4.82;2.90;;;;;;;19.61;35.10;101088.56;7315764;19;132876;-62
2022/01/10 01:33:14;;;;;;;5.03;2.92;;;;;;;19.61;35.17;101097.72;7308504;19;131419;-63
2022/01/10 01:35:41;;;;;;;6.75;3.20;;;;;;;19.60;35.31;101096.03;7314473;19;129042;-62
2022/01/10 01:38:08;;;;;;;5.90;2.80;;;;;;;19.59;35.33;101099.91;7310983;19;129141;-62
2022/01/10 01:40:41;;;;;;;4.50;2.83;;;;;;;19.57;35.49;101096.53;7311856;19;131182;-63
2022/01/10 01:43:08;;;;;;;6.97;3.28;;;;;;;19.56;35.08;101097.66;7313597;19;131017;-62
2022/01/10 01:45:41;;;;;;;7.25;2.88;;;;;;;19.56;35.19;101100.41;7310065;19;130769;-63
2022/01/10 01:48:10;;;;;;;7.72;3.25;;;;;;;19.55;35.41;101104.28;7312401;19;129130;-62
2022/01/10 01:50:36;;;;;;;4.90;2.90;;;;;;;19.53;35.51;101112.00;7307577;19;132178;-62
2022/01/10 01:53:04;;;;;;;6.05;2.80;;;;;;;19.52;35.47;101121.41;7310965;19;131182;-63
2022/01/10 01:55:31;;;;;;;7.93;3.00;;;;;;;19.50;35.40;101132.78;7310908;19;129612;-62
2022/01/10 01:57:58;;;;;;;5.85;2.97;;;;;;;19.50;35.22;101146.66;7312606;19;131118;-62
2022/01/10 02:00:26;;;;;;;8.75;3.35;;;;;;;19.50;35.26;101151.34;7309677;19;132436;-62
2022/01/10 02:02:53;;;;;;;5.28;2.97;;;;;;;19.48;35.19;101148.81;7310168;19;131326;-63
2022/01/10 02:05:20;;;;;;;6.13;2.90;;;;;;;19.47;34.90;101151.84;7312425;19;128913;-62
2022/01/10 02:07:47;;;;;;;5.88;2.80;;;;;;;19.47;35.15;101162.94;7309789;19;129376;-62
2022/01/10 02:10:14;;;;;;;6.47;3.20;;;;;;;19.45;35.28;101176.19;7312244;19;131163;-62
2022/01/10 02:12:41;;;;;;;5.25;2.88;;;;;;;19.44;34.86;101169.81;7307282;19;131289;-63
2022/01/10 02:15:08;;;;;;;7.50;3.38;;;;;;;19.43;34.96;101172.84;7310416;19;129041;-63
2022/01/10 02:17:37;;;;;;;8.65;3.58;;;;;;;19.41;35.38;101167.53;7309745;19;130372;-62
2022/01/10 02:20:07;;;;;;;6.72;3.05;;;;;;;19.40;35.18;101178.88;7312591;19;132268;-62
2022/01/10 02:22:37;;;;;;;4.40;3.00;;;;;;;19.38;35.42;101188.28;7309823;19;131442;-62
2022/01/10 02:25:04;;;;;;;5.72;3.10;;;;;;;19.37;35.18;101181.06;7308868;19;131222;-62
2022/01/10 02:27:31;;;;;;;4.00;2.70;;;;;;;19.37;35.14;101178.28;7310253;19;130302;-62
2022/01/10 02:29:57;;;;;;;8.05;3.13;;;;;;;19.36;35.00;101178.53;7309467;19;131244;-62
2022/01/10 02:32:24;;;;;;;6.40;3.22;;;;;;;19.35;34.97;101199.06;7310674;19;131982;-63
2022/01/10 02:34:51;;;;;;;6.70;3.50;;;;;;;19.33;35.14;101207.59;7304476;19;130930;-62
2022/01/10 02:37:34;;;;;;;7.25;3.63;;;;;;;19.34;35.33;101202.91;7311162;19;130019;-62
2022/01/10 02:40:06;;;;;;;6.82;2.95;;;;;;;19.31;35.45;101220.91;7309441;19;131653;-62
2022/01/10 02:42:33;;;;;;;4.82;2.78;;;;;;;19.30;35.15;101213.66;7309187;19;131433;-62
2022/01/10 02:45:00;;;;;;;6.97;3.03;;;;;;;19.30;35.39;101221.13;7311210;19;128882;-62
2022/01/10 02:47:29;;;;;;;5.18;3.08;;;;;;;19.28;35.28;101214.97;7308807;19;128862;-62
2022/01/10 02:49:55;;;;;;;7.22;3.17;;;;;;;19.26;35.18;101218.00;7310369;19;131117;-62
2022/01/10 02:52:22;;;;;;;6.75;3.40;;;;;;;19.28;35.16;101220.50;7307322;19;131219;-63
2022/01/10 02:54:49;;;;;;;5.35;3.25;;;;;;;19.25;34.98;101234.88;7311126;19;128967;-62
2022/01/10 02:57:16;;;;;;;6.28;3.03;;;;;;;19.24;34.91;101244.28;7308115;19;132676;-63
2022/01/10 02:59:44;;;;;;;5.90;2.85;;;;;;;19.24;35.03;101241.53;7311230;19;131196;-62
2022/01/10 03:02:11;;;;;;;4.07;2.60;;;;;;;19.22;35.24;101244.53;7306760;19;131233;-62
2022/01/10 03:04:38;;;;;;;9.07;3.40;;;;;;;19.21;35.17;101253.91;7307831;19;132304;-62
2022/01/10 03:07:05;;;;;;;6.65;3.08;;;;;;;19.20;35.13;101263.31;7310028;19;129054;-62
2022/01/10 03:09:32;;;;;;;8.75;3.70;;;;;;;19.20;34.96;101266.09;7308973;19;131114;-62
2022/01/10 03:11:59;;;;;;;10.15;3.25;;;;;;;19.19;35.33;101272.72;7311576;19;132015;-62
2022/01/10 03:14:25;;;;;;;6.18;3.10;;;;;;;19.18;35.01;101260.78;7305867;19;128851;-62
2022/01/10 03:16:52;;;;;;;5.82;2.95;;;;;;;19.18;35.16;101268.25;7311009;19;129085;-62
2022/01/10 03:19:19;;;;;;;4.15;2.78;;;;;;;19.17;35.43;101272.13;7307095;19;134294;-62
2022/01/10 03:21:45;;;;;;;8.05;3.05;;;;;;;19.16;35.30;101270.44;7310669;19;131147;-63
2022/01/10 03:24:12;;;;;;;6.60;3.33;;;;;;;19.14;35.22;101270.66;7306365;19;130145;-62
2022/01/10 03:26:39;;;;;;;6.05;3.10;;;;;;;19.13;35.15;101282.00;7308327;19;133037;-62
2022/01/10 03:29:06;;;;;;;5.63;3.47;;;;;;;19.13;35.30;101295.88;7306544;19;132021;-62
2022/01/10 03:31:32;;;;;;;5.75;3.15;;;;;;;19.10;35.32;101301.88;7307417;19;131074;-62
2022/01/10 03:33:59;;;;;;;6.70;2.65;;;;;;;19.10;35.09;101301.88;7309507;19;130023;-62
2022/01/10 03:36:26;;;;;;;7.28;3.30;;;;;;;19.09;34.78;101301.06;7306558;19;131178;-62
2022/01/10 03:38:52;;;;;;;8.65;3.40;;;;;;;19.08;35.14;101302.97;7311103;19;131125;-62
2022/01/10 03:41:19;;;;;;;6.53;3.38;;;;;;;19.08;35.03;101313.22;7306291;19;131052;-62
2022/01/10 03:43:46;;;;;;;7.05;3.08;;;;;;;19.07;35.13;101315.19;7310149;19;128973;-62
2022/01/10 03:46:13;;;;;;;7.70;3.33;;;;;;;19.05;35.10;101317.34;7305835;19;129489;-62
2022/01/10 03:48:39;;;;;;;5.22;2.95;;;;;;;19.04;35.32;101321.19;7306359;19;131073;-62
2022/01/10 03:51:06;;;;;;;4.25;3.10;;;;;;;19.04;35.11;101335.06;7312630;19;131042;-62
2022/01/10 03:53:33;;;;;;;5.65;3.10;;;;;;;19.03;35.11;101338.91;7314407;19;130586;-62
2022/01/10 03:56:00;;;;;;;7.05;2.78;;;;;;;19.02;34.88;101334.44;7315087;19;129181;-62
2022/01/10 03:58:26;;;;;;;6.93;3.15;;;;;;;19.03;35.11;101344.47;7313903;19;130946;-63
2022/01/10 04:00:54;;;;;;;5.85;3.08;;;;;;;19.03;35.19;101341.69;7317526;19;130933;-62
2022/01/10 04:03:21;;;;;;;7.70;2.88;;;;;;;19.01;34.95;101343.00;7313089;19;129081;-62
2022/01/10 04:05:47;;;;;;;4.45;2.90;;;;;;;19.00;35.29;101355.19;7316043;19;129348;-62
2022/01/10 04:08:14;;;;;;;7.20;2.90;;;;;;;18.99;34.86;101368.19;7313149;19;133644;-62
2022/01/10 04:10:41;;;;;;;5.47;2.60;;;;;;;18.98;35.31;101366.50;7315848;19;131125;-62
2022/01/10 04:13:08;;;;;;;3.97;2.80;;;;;;;18.97;35.25;101373.13;7313043;19;129140;-62
2022/01/10 04:15:34;;;;;;;5.55;2.95;;;;;;;18.94;35.37;101365.31;7312326;19;129015;-62
2022/01/10 04:18:02;;;;;;;5.50;3.20;;;;;;;18.93;35.05;101369.16;7315639;19;131935;-62
2022/01/10 04:20:29;;;;;;;8.00;3.10;;;;;;;18.92;35.21;101376.63;7313292;19;130967;-62
2022/01/10 04:22:55;;;;;;;5.78;3.10;;;;;;;;;;7314939;19;128961;-63
2022/01/10 04:25:22;;;;;;;6.30;2.65;;;;;;;18.92;34.88;101378.56;7311104;19;128983;-62
2022/01/10 04:27:49;;;;;;;5.13;3.03;;;;;;;18.90;35.32;101381.53;7316268;19;131131;-62
2022/01/10 04:30:16;;;;;;;6.30;3.10;;;;;;;18.89;35.29;101385.41;7312587;19;131475;-62
2022/01/10 04:32:44;;;;;;;4.45;2.50;;;;;;;18.88;35.16;101394.81;7315553;19;129142;-63
2022/01/10 04:35:11;;;;;;;5.80;3.03;;;;;;;18.88;35.02;101391.19;7310561;19;129139;-62
2022/01/10 04:37:39;;;;;;;6.25;3.03;;;;;;;18.87;35.28;101403.34;7312358;19;131185;-62
2022/01/10 04:40:07;;;;;;;6.30;2.85;;;;;;;18.87;35.01;101403.34;7314296;19;132166;-62
2022/01/10 04:42:34;;;;;;;6.57;3.05;;;;;;;18.85;35.17;101399.97;7312559;19;129392;-62
2022/01/10 04:45:01;;;;;;;5.50;2.80;;;;;;;18.85;35.23;101411.06;7314221;19;129035;-62
2022/01/10 04:47:28;;;;;;;6.32;3.03;;;;;;;18.85;34.93;101428.56;7311521;19;131080;-62
2022/01/10 04:52:29;;;;;;;9.50;3.40;;;;;;;18.84;35.10;101437.09;7314021;19;128876;-62
2022/01/10 04:54:56;;;;;;;7.65;3.45;;;;;;;18.82;35.33;101445.66;7313716;19;130542;-62
2022/01/10 04:57:23;;;;;;;4.65;2.97;;;;;;;18.81;35.18;101443.97;7311694;19;131109;-62
2022/01/10 04:59:50;;;;;;;7.18;2.88;;;;;;;18.80;34.86;101442.25;7313574;19;131072;-63
2022/01/10 05:02:16;;;;;;;5.35;3.03;;;;;;;18.79;35.14;101445.28;7313700;19;130612;-62
2022/01/10 05:04:43;;;;;;;6.43;3.00;;;;;;;18.79;34.96;101448.88;7311865;19;131106;-63
2022/01/10 05:07:10;;;;;;;4.18;2.88;;;;;;;18.78;35.23;101461.06;7315344;19;131533;-62
2022/01/10 05:09:37;;;;;;;7.20;3.20;;;;;;;18.77;34.70;101460.22;7311458;19;132153;-63
2022/01/10 05:12:04;;;;;;;7.28;3.47;;;;;;;18.74;34.98;101477.31;7312519;19;130885;-62
2022/01/10 05:14:33;;;;;;;6.78;3.40;;;;;;;18.74;34.97;101485.63;7308117;19;131005;-62
2022/01/10 05:17:00;;;;;;;7.60;3.30;;;;;;;18.74;34.70;101493.94;7313618;19;131039;-62
2022/01/10 05:19:26;;;;;;;5.28;3.10;;;;;;;18.73;34.80;101492.25;7310486;19;131245;-64
2022/01/10 05:21:56;;;;;;;6.47;3.00;;;;;;;18.74;34.80;101488.41;7311962;19;128999;-62
2022/01/10 05:24:23;;;;;;;7.43;3.38;;;;;;;18.74;34.89;101505.03;7311141;19;129085;-62
2022/01/10 05:26:50;;;;;;;9.02;3.35;;;;;;;18.74;34.61;101509.75;7309923;19;131320;-62
2022/01/10 05:29:16;;;;;;;5.22;3.30;;;;;;;18.73;34.65;101513.59;7312621;19;130948;-62
2022/01/10 05:31:44;;;;;;;5.13;3.03;;;;;;;18.73;34.75;101517.19;7310044;19;128883;-62
2022/01/10 05:34:11;;;;;;;10.85;4.40;;;;;;;18.73;34.59;101521.91;7313363;19;131652;-62
2022/01/10 05:36:38;;;;;;;6.38;3.47;;;;;;;18.72;34.50;101529.34;7306668;19;131119;-63
2022/01/10 05:39:07;;;;;;;7.50;3.50;;;;;;;18.73;34.28;101541.31;7311850;19;131510;-63
2022/01/10 05:41:35;;;;;;;7.38;3.58;;;;;;;18.72;34.63;101545.97;7310331;19;130283;-62
2022/01/10 05:44:02;;;;;;;5.68;3.10;;;;;;;18.71;34.30;101555.38;7312108;19;128935;-62
2022/01/10 05:46:29;;;;;;;7.20;3.28;;;;;;;18.71;34.62;101554.53;7310664;19;131475;-62
2022/01/10 05:49:01;;;;;;;7.72;3.47;;;;;;;18.70;34.78;101550.94;7308376;19;131814;-62
2022/01/10 05:51:32;;;;;;;5.85;3.28;;;;;;;18.70;34.72;101556.47;7312958;19;129070;-62
2022/01/10 05:53:59;;;;;;;7.32;2.88;;;;;;;18.70;34.32;101566.69;7308495;19;130901;-62
2022/01/10 05:56:26;;;;;;;6.82;3.50;;;;;;;18.69;34.68;101574.19;7315017;19;131302;-61
2022/01/10 05:58:53;;;;;;;4.65;2.80;;;;;;;18.69;34.47;101579.72;7307637;19;131072;-62
2022/01/10 06:01:20;;;;;;;4.18;2.80;;;;;;;18.68;34.83;101582.72;7314461;19;128921;-62
2022/01/10 06:03:47;;;;;;;5.38;2.97;;;;;;;18.68;34.76;101582.72;7309254;19;129689;-62
2022/01/10 06:06:13;;;;;;;4.97;3.28;;;;;;;18.67;34.72;101583.78;7310399;19;131326;-62
2022/01/10 06:08:40;;;;;;;6.80;3.03;;;;;;;18.66;34.73;101587.63;7306163;19;131947;-62
2022/01/10 06:11:07;;;;;;;4.47;3.17;;;;;;;18.66;34.62;101595.94;7309892;19;129375;-62
2022/01/10 06:13:34;;;;;;;5.43;3.10;;;;;;;18.65;34.85;101595.13;7310217;19;129090;-62
2022/01/10 06:16:01;;;;;;;5.22;3.10;;;;;;;18.64;34.54;101587.88;7304922;19;131607;-63
2022/01/10 06:18:27;;;;;;;7.25;3.60;;;;;;;18.64;34.66;101598.13;7309831;19;132180;-62
2022/01/10 06:20:54;;;;;;;5.78;3.00;;;;;;;18.64;34.78;101600.91;7308487;19;129242;-62
2022/01/10 06:23:21;;;;;;;6.18;3.10;;;;;;;18.67;34.59;101600.41;7313578;19;129866;-62
2022/01/10 06:25:49;;;;;;;5.00;2.65;;;;;;;18.69;34.81;101596.34;7309951;19;131872;-61
2022/01/10 06:28:15;;;;;;;7.07;3.35;;;;;;;18.76;34.42;101613.75;7310313;19;131091;-62
2022/01/10 06:30:42;;;;;;;5.53;2.67;;;;;;;18.87;34.77;101606.59;7313999;19;129281;-62
2022/01/10 06:33:09;;;;;;;9.00;3.45;;;;;;;19.06;34.42;101603.81;7308275;19;129052;-62
2022/01/10 06:35:35;;;;;;;5.68;2.55;;;;;;;19.27;34.13;101610.81;7311035;19;131070;-62
2022/01/10 06:38:02;;;;;;;5.63;2.83;;;;;;;19.52;34.11;101618.16;7308335;19;131200;-62
2022/01/10 06:40:29;;;;;;;6.47;2.92;;;;;;;19.82;33.72;101637.56;7311320;19;129060;-62
2022/01/10 06:42:56;;;;;;;3.90;2.38;;;;;;;20.12;33.02;101633.06;7309559;19;129686;-61
2022/01/10 06:45:23;;;;;;;10.32;2.70;;;;;;;20.41;32.93;101622.09;7310669;19;132060;-62
2022/01/10 06:47:50;;;;;;;5.30;2.90;;;;;;;20.69;32.33;101617.72;7309460;19;130958;-62
2022/01/10 06:50:16;;;;;;;4.28;2.47;;;;;;;20.90;32.12;101636.59;7307906;19;128985;-62
2022/01/10 06:52:44;;;;;;;9.13;2.85;;;;;;;21.09;32.10;101643.94;7314431;19;129149;-62
2022/01/10 06:55:11;;;;;;;5.90;2.75;;;;;;;21.22;31.83;101647.28;7308210;19;131154;-62
2022/01/10 06:57:37;;;;;;;3.88;2.38;;;;;;;21.33;31.60;101653.06;7311507;19;131857;-62
2022/01/10 07:00:05;;;;;;;6.80;2.55;;;;;;;21.40;31.37;101659.34;7308621;19;129884;-62
2022/01/10 07:02:32;;;;;;;9.45;2.70;;;;;;;21.40;31.15;101667.69;7311405;19;129493;-62
2022/01/10 07:04:59;;;;;;;9.85;2.60;;;;;;;21.39;31.12;101671.56;7309480;19;131038;-62
2022/01/10 07:07:26;;;;;;;7.85;2.90;;;;;;;21.36;31.33;101677.63;7309673;19;131800;-62
2022/01/10 07:09:52;;;;;;;15.43;3.80;;;;;;;21.30;31.46;101681.38;7310456;19;128935;-62
2022/01/10 07:12:19;;;;;;;7.40;3.50;;;;;;;21.21;30.96;101681.75;7309112;19;129545;-62
2022/01/10 07:14:46;;;;;;;9.98;3.58;;;;;;;21.13;31.49;101690.50;7313151;19;131190;-61
2022/01/10 07:17:12;;;;;;;7.45;2.95;;;;;;;21.05;31.35;101710.31;7306837;19;130953;-62
2022/01/10 07:19:39;;;;;;;4.65;3.00;;;;;;;20.96;31.43;101707.09;7311990;19;129200;-62
2022/01/10 07:22:06;;;;;;;6.43;2.75;;;;;;;20.87;31.26;101712.19;7308683;19;128829;-62
2022/01/10 07:24:33;;;;;;;7.15;2.85;;;;;;;20.80;31.81;101722.56;7311890;19;131590;-62
2022/01/10 07:27:01;;;;;;;6.72;2.95;;;;;;;20.71;31.65;101730.41;7315296;19;131248;-62
2022/01/10 07:29:27;;;;;;;7.13;3.33;;;;;;;20.64;31.71;101743.56;7316558;19;129850;-62
2022/01/10 07:31:54;;;;;;;5.18;2.83;;;;;;;20.56;31.80;101753.09;7317652;19;132111;-61
2022/01/10 07:34:21;;;;;;;7.00;2.85;;;;;;;20.49;32.07;101769.06;7316549;19;131356;-62
2022/01/10 07:36:48;;;;;;;5.78;2.60;;;;;;;20.42;31.89;101769.16;7318828;19;131170;-61
2022/01/10 07:39:14;;;;;;;5.32;2.90;;;;;;;20.35;32.08;101778.69;7313716;19;129185;-62
2022/01/10 07:41:45;;;;;;;5.53;2.95;;;;;;;20.27;32.45;101782.63;7318686;19;133402;-62
2022/01/10 07:44:12;;;;;;;5.03;2.50;;;;;;;20.20;32.52;101785.50;7314605;19;132056;-62
2022/01/10 07:46:39;;;;;;;5.28;2.40;;;;;;;20.15;32.42;101790.94;7316201;19;131185;-62
2022/01/10 07:49:06;;;;;;;10.65;3.35;;;;;;;20.09;32.66;101800.22;7314879;19;128967;-61
2022/01/10 07:51:33;;;;;;;7.25;3.00;;;;;;;20.06;32.58;101809.03;7314037;19;128804;-62
2022/01/10 07:54:00;;;;;;;5.63;2.80;;;;;;;20.04;32.59;101811.19;7316163;19;131341;-62
2022/01/10 07:56:27;;;;;;;4.35;2.33;;;;;;;20.05;32.69;101815.66;7313762;19;131521;-62
2022/01/10 07:58:54;;;;;;;4.40;2.80;;;;;;;20.09;32.34;101830.75;7316641;19;129102;-62
2022/01/10 08:01:21;;;;;;;6.43;2.90;;;;;;;20.15;32.24;101829.84;7313186;19;128931;-62
2022/01/10 08:03:50;;;;;;;3.70;2.30;;;;;;;20.24;32.59;101839.53;7317112;19;131172;-62
2022/01/10 08:06:19;;;;;;;7.70;2.40;;;;;;;20.34;32.60;101843.69;7315319;19;131027;-62
2022/01/10 08:08:45;;;;;;;4.03;2.42;;;;;;;20.42;32.41;101846.16;7316935;19;128955;-62
2022/01/10 08:11:13;;;;;;;6.55;2.35;;;;;;;20.51;31.94;101841.94;7315234;19;129136;-62
2022/01/10 08:13:41;;;;;;;4.43;2.30;;;;;;;20.58;32.25;101842.66;7315577;19;131459;-62
2022/01/10 08:16:08;;;;;;;6.53;2.47;;;;;;;20.67;32.27;101847.91;7317621;19;132133;-62
2022/01/10 08:18:35;;;;;;;9.07;2.50;;;;;;;20.73;31.78;101858.06;7314764;19;129129;-62
2022/01/10 08:21:05;;;;;;;5.78;2.75;;;;;;;20.79;32.01;101854.38;7318127;19;129206;-62
2022/01/10 08:23:32;;;;;;;6.00;2.40;;;;;;;20.83;31.88;101858.34;7313593;19;131161;-62
2022/01/10 08:25:59;;;;;;;4.47;2.50;;;;;;;20.89;31.76;101862.13;7317579;19;132000;-62
2022/01/10 08:28:26;;;;;;;4.95;2.55;;;;;;;20.94;31.67;101864.19;7315281;19;128825;-61
2022/01/10 08:30:53;;;;;;;3.90;2.47;;;;;;;20.99;31.40;101881.00;7315704;19;128795;-61
2022/01/10 08:33:19;;;;;;;3.55;2.40;;;;;;;21.03;31.81;101885.03;7315117;19;134655;-61
2022/01/10 08:35:46;;;;;;;4.10;2.30;;;;;;;21.08;31.62;101884.28;7314504;19;131210;-62
2022/01/10 08:38:13;;;;;;;4.97;2.20;;;;;;;21.12;31.49;101897.47;7316292;19;129353;-62
2022/01/10 08:40:40;;;;;;;3.47;2.20;;;;;;;21.16;31.53;101892.28;7314287;19;129302;-62
2022/01/10 08:43:10;;;;;;;7.68;2.50;;;;;;;21.19;31.43;101901.00;7316219;19;131346;-62
2022/01/10 08:45:38;;;;;;;5.55;2.30;;;;;;;21.23;31.67;101904.16;7312588;19;132515;-62
2022/01/10 08:48:08;;;;;;;3.63;2.00;;;;;;;21.27;31.15;101912.88;7316659;19;128789;-61
2022/01/10 08:50:35;;;;;;;5.03;2.28;;;;;;;21.29;31.73;101927.41;7314344;19;129010;-62
2022/01/10 08:53:04;;;;;;;5.15;2.50;;;;;;;21.31;31.50;101922.41;7315089;19;131150;-62
2022/01/10 08:55:31;;;;;;;4.22;2.42;;;;;;;21.34;30.96;101938.63;7313542;19;131203;-61
2022/01/10 08:57:59;;;;;;;4.13;2.25;;;;;;;21.35;31.25;101941.16;7314651;19;128993;-62
2022/01/10 09:00:27;;;;;;;3.15;2.17;;;;;;;21.36;31.27;101944.81;7316847;19;129046;-62
2022/01/10 09:02:54;;;;;;;3.45;2.05;;;;;;;21.36;31.55;101944.81;7312906;19;131705;-62
2022/01/10 09:05:21;;;;;;;12.05;2.25;;;;;;;21.37;31.34;101952.09;7317403;19;131509;-62
2022/01/10 09:07:49;;;;;;;6.90;2.30;;;;;;;21.37;31.30;101947.34;7312492;19;129039;-62
2022/01/10 09:10:15;;;;;;;6.63;2.70;;;;;;;21.36;30.99;101956.78;7300532;19;129188;-62
2022/01/10 09:12:42;;;;;;;5.22;2.45;;;;;;;21.36;31.21;101965.13;7311575;19;131350;-62
2022/01/10 09:15:09;;;;;;;4.60;2.25;;;;;;;21.37;31.03;101964.06;7315077;19;131813;-63
2022/01/10 09:17:36;;;;;;;5.57;2.30;;;;;;;21.39;31.11;101960.19;7312167;19;129025;-62
2022/01/10 09:20:03;;;;;;;3.63;2.17;;;;;;;21.40;30.82;101956.31;7313835;19;129561;-62
2022/01/10 09:22:30;;;;;;;3.95;2.35;;;;;;;21.41;31.03;101970.00;7316138;19;131197;-62
2022/01/10 09:24:57;;;;;;;5.72;2.78;;;;;;;21.43;31.21;101966.97;7313052;19;131177;-62
2022/01/10 09:27:24;;;;;;;5.55;2.10;;;;;;;21.44;30.69;101979.81;7316096;19;129711;-62
2022/01/10 09:29:50;;;;;;;4.43;2.30;;;;;;;21.46;30.79;101978.47;7310862;19;129224;-62
2022/01/10 09:32:17;;;;;;;3.28;1.98;;;;;;;21.46;30.85;101989.63;7315921;19;131333;-62
2022/01/10 09:34:44;;;;;;;3.15;2.10;;;;;;;21.48;30.83;101987.44;7309954;19;137017;-63
2022/01/10 09:37:11;;;;;;;3.97;2.00;;;;;;;21.50;30.77;101992.78;7314682;19;128909;-62
2022/01/10 09:39:37;;;;;;;4.45;2.15;;;;;;;21.51;31.00;101995.34;7311467;19;131547;-62
2022/01/10 09:42:04;;;;;;;6.93;1.98;;;;;;;21.52;30.90;102002.63;7314355;19;131260;-62
2022/01/10 09:44:31;;;;;;;5.70;2.15;;;;;;;21.54;31.02;102001.53;7311352;19;131054;-61
2022/01/10 09:46:58;;;;;;;3.63;2.20;;;;;;;21.52;30.85;102005.41;7312104;19;131593;-62
2022/01/10 09:49:25;;;;;;;4.18;1.98;;;;;;;21.52;31.07;102004.53;7314197;19;129047;-63
2022/01/10 09:51:51;;;;;;;3.30;1.85;;;;;;;21.48;30.79;102015.28;7310637;19;131219;-62
2022/01/10 09:54:18;;;;;;;3.70;2.17;;;;;;;21.45;31.10;102026.88;7315292;19;132489;-62
2022/01/10 09:56:47;;;;;;;4.03;2.30;;;;;;;21.41;31.00;102031.25;7310372;19;130298;-63
2022/01/10 09:59:15;;;;;;;3.42;1.90;;;;;;;21.36;30.84;102036.69;7314913;19;128919;-63
2022/01/10 10:01:43;;;;;;;7.30;2.10;;;;;;;21.30;30.60;102045.97;7310675;19;131184;-62
2022/01/10 10:04:11;;;;;;;6.65;2.30;;;;;;;21.22;30.62;102052.75;7311408;19;131848;-62
2022/01/10 10:06:38;;;;;;;4.43;2.60;;;;;;;21.17;30.28;102050.63;7314659;19;128858;-62
2022/01/10 10:09:07;;;;;;;4.75;3.00;;;;;;;21.15;30.33;102055.63;7308678;19;129462;-62
2022/01/10 10:11:46;;;;;;;5.10;2.35;;;;;;;21.12;30.18;102050.53;7311169;19;131418;-62
2022/01/10 10:14:17;;;;;;;3.58;2.65;;;;;;;21.10;30.27;102058.25;7310313;19;131132;-62
2022/01/10 10:16:50;;;;;;;4.78;2.47;;;;;;;21.09;30.27;102067.69;7311769;19;129157;-62
2022/01/10 10:19:19;;;;;;;4.55;2.25;;;;;;;21.10;30.05;102065.75;7313542;19;129185;-62
2022/01/10 10:21:47;;;;;;;5.57;2.00;;;;;;;21.11;30.14;102073.03;7309721;19;132173;-62
2022/01/10 10:24:14;;;;;;;3.38;2.35;;;;;;;21.11;30.06;102076.66;7313287;19;130881;-62
2022/01/10 10:26:41;;;;;;;5.13;2.63;;;;;;;21.11;29.94;102087.78;7302780;19;130857;-62
2022/01/10 10:29:13;;;;;;;4.43;2.42;;;;;;;21.12;30.18;102089.47;7309545;19;129763;-62
2022/01/10 10:31:54;;;;;;;3.00;2.13;;;;;;;21.16;30.11;102085.16;7309103;19;131450;-63
2022/01/10 10:34:27;;;;;;;3.58;2.13;;;;;;;21.16;30.21;102090.72;7310571;19;131262;-62
2022/01/10 10:37:06;;;;;;;5.78;2.10;;;;;;;21.17;30.14;102097.13;7312678;19;130372;-62
2022/01/10 10:39:44;;;;;;;3.22;2.20;;;;;;;21.16;30.50;102099.06;7309348;19;129388;-63
2022/01/10 10:42:14;;;;;;;3.22;2.10;;;;;;;21.16;30.25;102107.41;7312214;19;131299;-62
2022/01/10 10:44:44;;;;;;;6.25;2.15;;;;;;;21.17;30.58;102111.88;7310846;19;131076;-62
2022/01/10 10:47:13;;;;;;;3.20;1.95;;;;;;;21.16;30.28;102107.41;7309318;19;128864;-62
2022/01/10 10:49:45;;;;;;;3.08;2.28;;;;;;;21.16;30.25;102101.84;7311797;19;129016;-62
2022/01/10 10:52:12;;;;;;;3.03;2.40;;;;;;;21.15;30.18;102116.84;7308553;19;132024;-62
2022/01/10 10:54:41;;;;;;;3.90;2.13;;;;;;;21.14;30.22;102119.84;7312546;19;131056;-63
2022/01/10 10:57:09;;;;;;;4.47;1.75;;;;;;;21.15;30.51;102122.41;7309702;19;133097;-62
2022/01/10 10:59:43;;;;;;;4.07;1.95;;;;;;;21.13;30.63;102119.00;7314134;19;129544;-62
2022/01/10 11:02:11;;;;;;;5.03;2.28;;;;;;;21.14;30.47;102126.28;7319658;19;131179;-62
2022/01/10 11:04:38;;;;;;;3.33;2.10;;;;;;;21.12;30.60;102128.44;7316107;19;133301;-63
2022/01/10 11:07:05;;;;;;;6.78;2.00;;;;;;;21.08;30.60;102131.91;7318956;19;128872;-61
2022/01/10 11:09:41;;;;;;;2.80;2.10;;;;;;;21.00;30.50;102128.34;7313580;19;129718;-62
2022/01/10 11:12:09;;;;;;;4.18;2.65;;;;;;;20.96;29.95;102129.94;7317670;19;131335;-62
2022/01/10 11:14:35;;;;;;;3.10;2.30;;;;;;;20.98;29.83;102138.91;7316141;19;133173;-62
2022/01/10 11:17:02;;;;;;;3.63;2.00;;;;;;;21.02;30.04;102133.72;7317361;19;128996;-63
2022/01/10 11:19:30;;;;;;;4.32;1.77;;;;;;;21.11;30.13;102142.59;7318522;19;128891;-63
2022/01/10 11:22:08;;;;;;;3.47;2.55;;;;;;;21.19;29.60;102150.59;7315847;19;133334;-62
2022/01/10 11:24:48;;;;;;;2.97;1.95;;;;;;;21.27;29.72;102161.41;7318177;19;131126;-62
2022/01/10 11:27:42;;;;;;;5.18;2.45;;;;;;;21.35;29.46;102160.25;7318405;19;129876;-62
2022/01/10 11:30:24;;;;;;;2.83;1.80;;;;;;;21.41;29.86;102164.88;7315960;19;130118;-63
2022/01/10 11:32:57;;;;;;;3.38;1.88;;;;;;;21.47;29.71;102166.72;7320814;19;133088;-62